createdAt,value
2022-10-14T00:01:23.820Z,63.82
2022-10-14T00:03:55.049Z,63.87
2022-10-14T00:06:26.265Z,63.84
2022-10-14T00:08:55.008Z,63.75
2022-10-14T00:11:25.256Z,63.91
2022-10-14T00:13:55.943Z,63.91
2022-10-14T00:16:27.215Z,63.89
2022-10-14T00:18:57.499Z,63.78
2022-10-14T00:21:26.317Z,63.84
2022-10-14T00:23:55.265Z,63.98
2022-10-14T00:26:25.930Z,64.15
2022-10-14T00:28:54.659Z,63.93
2022-10-14T00:31:23.096Z,64.02
2022-10-14T00:33:51.790Z,64.27
2022-10-14T00:36:24.726Z,64.08
2022-10-14T00:38:54.009Z,64.22
2022-10-14T00:41:24.794Z,64.32
2022-10-14T00:43:59.599Z,64.38
2022-10-14T00:46:30.236Z,64.66
2022-10-14T00:48:59.996Z,64.63
2022-10-14T00:51:31.418Z,64.60
2022-10-14T00:53:59.871Z,64.94
2022-10-14T00:56:31.554Z,65.17
2022-10-14T00:59:01.648Z,65.06
2022-10-14T01:01:29.973Z,65.31
2022-10-14T01:03:58.483Z,65.64
2022-10-14T01:06:42.506Z,65.70
2022-10-14T01:09:15.527Z,66.24
2022-10-14T01:12:09.828Z,65.72
2022-10-14T01:14:47.206Z,66.08
2022-10-14T01:17:24.813Z,66.02
2022-10-14T01:20:29.731Z,66.06
2022-10-14T01:23:19.766Z,66.25
2022-10-14T01:26:01.975Z,66.21
2022-10-14T01:28:45.024Z,66.31
2022-10-14T01:31:19.506Z,66.17
2022-10-14T01:33:53.934Z,66.16
2022-10-14T01:36:27.310Z,66.20
2022-10-14T01:39:02.068Z,66.00
2022-10-14T01:41:34.565Z,65.62
2022-10-14T01:44:07.391Z,65.64
2022-10-14T01:46:39.623Z,65.69
2022-10-14T01:49:13.553Z,65.68
2022-10-14T01:51:50.476Z,65.62
2022-10-14T01:54:23.979Z,65.58
2022-10-14T01:56:54.746Z,65.58
2022-10-14T01:59:25.519Z,65.57
2022-10-14T02:01:55.360Z,65.23
2022-10-14T02:04:24.858Z,65.30
2022-10-14T02:07:01.633Z,65.48
2022-10-14T02:09:40.023Z,65.47
2022-10-14T02:12:19.071Z,65.31
2022-10-14T02:14:55.621Z,65.59
2022-10-14T02:17:32.598Z,65.66
2022-10-14T02:20:09.143Z,65.60
2022-10-14T02:22:40.872Z,65.67
2022-10-14T02:25:14.127Z,65.64
2022-10-14T02:27:45.984Z,65.52
2022-10-14T02:30:16.578Z,65.64
2022-10-14T02:32:48.192Z,65.86
2022-10-14T02:35:19.615Z,65.77
2022-10-14T02:37:50.169Z,65.54
2022-10-14T02:40:24.255Z,65.67
2022-10-14T02:42:52.777Z,65.57
2022-10-14T02:45:22.150Z,65.62
2022-10-14T02:47:51.918Z,65.50
2022-10-14T02:50:20.270Z,65.23
2022-10-14T02:52:49.194Z,65.31
2022-10-14T02:55:17.903Z,65.04
2022-10-14T02:57:46.635Z,65.08
2022-10-14T03:00:16.129Z,65.04
2022-10-14T03:02:44.500Z,65.07
2022-10-14T03:05:14.421Z,65.19
2022-10-14T03:07:42.722Z,65.08
2022-10-14T03:10:11.179Z,65.17
2022-10-14T03:12:39.627Z,65.41
2022-10-14T03:15:09.523Z,65.20
2022-10-14T03:17:38.117Z,65.18
2022-10-14T03:20:07.371Z,65.29
2022-10-14T03:22:37.167Z,65.34
2022-10-14T03:25:05.780Z,64.86
2022-10-14T03:27:34.149Z,64.97
2022-10-14T03:30:02.883Z,65.10
2022-10-14T03:32:31.375Z,64.83
2022-10-14T03:34:59.778Z,64.87
2022-10-14T03:37:28.127Z,65.21
2022-10-14T03:39:57.939Z,65.25
2022-10-14T03:42:26.544Z,65.28
2022-10-14T03:44:54.963Z,65.24
2022-10-14T03:47:23.608Z,65.32
2022-10-14T03:49:52.641Z,65.49
2022-10-14T03:52:21.505Z,65.50
2022-10-14T03:54:50.007Z,65.37
2022-10-14T03:57:19.819Z,65.43
2022-10-14T03:59:48.178Z,65.44
2022-10-14T04:02:16.500Z,65.65
2022-10-14T04:04:45.342Z,65.73
2022-10-14T04:07:13.683Z,65.88
2022-10-14T04:09:42.071Z,66.00
2022-10-14T04:12:10.415Z,65.90
2022-10-14T04:14:40.551Z,65.85
2022-10-14T04:17:08.931Z,65.92
2022-10-14T04:19:37.323Z,65.85
2022-10-14T04:22:05.983Z,65.92
2022-10-14T04:24:34.699Z,65.97
2022-10-14T04:27:03.119Z,66.18
2022-10-14T04:29:31.482Z,66.17
2022-10-14T04:32:01.529Z,66.21
2022-10-14T04:34:29.855Z,66.31
2022-10-14T04:36:58.404Z,66.28
2022-10-14T04:39:26.879Z,66.26
2022-10-14T04:41:55.138Z,66.32
2022-10-14T04:44:23.874Z,66.35
2022-10-14T04:46:52.263Z,66.39
2022-10-14T04:49:22.761Z,66.45
2022-10-14T04:51:51.061Z,66.55
2022-10-14T04:54:19.567Z,66.48
2022-10-14T04:56:48.031Z,66.52
2022-10-14T04:59:16.545Z,66.34
2022-10-14T05:01:44.915Z,66.01
2022-10-14T05:04:13.405Z,65.87
2022-10-14T05:06:43.536Z,65.44
2022-10-14T05:09:11.903Z,65.27
2022-10-14T05:11:40.280Z,65.17
2022-10-14T05:14:08.686Z,64.77
2022-10-14T05:16:36.979Z,64.77
2022-10-14T05:19:05.520Z,64.95
2022-10-14T05:21:33.995Z,64.95
2022-10-14T05:24:04.215Z,64.95
2022-10-14T05:26:32.787Z,64.89
2022-10-14T05:29:01.250Z,64.83
2022-10-14T05:31:29.559Z,64.77
2022-10-14T05:33:57.951Z,64.54
2022-10-14T05:36:26.459Z,64.67
2022-10-14T05:38:58.786Z,64.69
2022-10-14T05:41:28.655Z,64.56
2022-10-14T05:43:57.093Z,64.67
2022-10-14T05:46:25.511Z,64.85
2022-10-14T05:48:53.823Z,64.61
2022-10-14T05:51:23.093Z,64.76
2022-10-14T05:53:51.420Z,64.50
2022-10-14T05:56:20.391Z,64.54
2022-10-14T05:58:50.199Z,64.53
2022-10-14T06:01:18.519Z,64.65
2022-10-14T06:03:46.881Z,64.71
2022-10-14T06:06:15.879Z,64.80
2022-10-14T06:08:45.167Z,64.75
2022-10-14T06:11:14.030Z,64.78
2022-10-14T06:13:43.454Z,65.07
2022-10-14T06:16:15.089Z,64.83
2022-10-14T06:18:43.471Z,64.88
2022-10-14T06:21:12.969Z,64.95
2022-10-14T06:23:41.303Z,64.95
2022-10-14T06:26:10.334Z,64.96
2022-10-14T06:28:39.326Z,64.94
2022-10-14T06:31:08.435Z,64.79
2022-10-14T06:33:38.276Z,64.69
2022-10-14T06:36:08.312Z,64.73
2022-10-14T06:38:36.659Z,64.73
2022-10-14T06:41:05.063Z,64.72
2022-10-14T06:43:35.418Z,64.67
2022-10-14T06:46:04.926Z,64.58
2022-10-14T06:48:33.468Z,64.49
2022-10-14T06:51:04.122Z,64.32
2022-10-14T06:53:32.651Z,64.18
2022-10-14T06:56:02.348Z,64.09
2022-10-14T06:58:31.355Z,64.19
2022-10-14T07:01:03.672Z,63.97
2022-10-14T07:03:32.514Z,63.87
2022-10-14T07:06:03.986Z,63.73
2022-10-14T07:08:32.474Z,63.83
2022-10-14T07:11:01.196Z,63.72
2022-10-14T07:13:29.695Z,63.71
2022-10-14T07:15:58.115Z,63.50
2022-10-14T07:18:26.913Z,63.83
2022-10-14T07:20:55.199Z,63.75
2022-10-14T07:23:25.055Z,63.77
2022-10-14T07:25:53.732Z,63.28
2022-10-14T07:28:22.099Z,63.47
2022-10-14T07:30:59.430Z,63.14
2022-10-14T07:33:28.245Z,63.50
2022-10-14T07:35:56.935Z,63.36
2022-10-14T07:38:26.674Z,63.42
2022-10-14T07:41:00.452Z,63.41
2022-10-14T07:43:28.572Z,63.60
2022-10-14T07:46:01.874Z,63.53
2022-10-14T07:48:33.020Z,63.35
2022-10-14T07:51:13.517Z,63.41
2022-10-14T07:53:43.345Z,63.17
2022-10-14T07:56:11.857Z,63.30
2022-10-14T07:58:44.320Z,63.05
2022-10-14T08:01:15.018Z,63.00
2022-10-14T08:03:44.000Z,63.28
2022-10-14T08:06:12.982Z,63.21
2022-10-14T08:08:44.155Z,63.10
2022-10-14T08:11:14.827Z,63.05
2022-10-14T08:13:46.185Z,63.16
2022-10-14T08:16:16.959Z,63.15
2022-10-14T08:18:46.279Z,63.35
2022-10-14T08:21:15.902Z,63.35
2022-10-14T08:23:45.813Z,63.46
2022-10-14T08:26:21.707Z,63.55
2022-10-14T08:28:50.786Z,63.49
2022-10-14T08:31:19.459Z,63.76
2022-10-14T08:33:48.243Z,64.00
2022-10-14T08:36:17.398Z,63.70
2022-10-14T08:38:47.667Z,64.02
2022-10-14T08:41:32.219Z,63.88
2022-10-14T08:44:12.702Z,63.79
2022-10-14T08:46:49.405Z,63.74
2022-10-14T08:49:27.270Z,63.54
2022-10-14T08:52:00.794Z,62.91
2022-10-14T08:54:38.225Z,63.21
2022-10-14T08:57:07.938Z,63.46
2022-10-14T08:59:41.853Z,63.01
2022-10-14T09:02:22.999Z,62.05
2022-10-14T09:04:52.116Z,62.42
2022-10-14T09:07:22.562Z,62.72
2022-10-14T09:09:56.004Z,62.46
2022-10-14T09:12:29.739Z,62.67
2022-10-14T09:15:03.085Z,62.99
2022-10-14T09:17:37.992Z,62.47
2022-10-14T09:20:18.156Z,61.87
2022-10-14T09:22:48.541Z,61.67
2022-10-14T09:25:19.723Z,61.69
2022-10-14T09:27:48.495Z,61.58
2022-10-14T09:30:19.360Z,61.98
2022-10-14T09:32:51.614Z,61.98
2022-10-14T09:35:26.520Z,62.06
2022-10-14T09:37:55.624Z,61.52
2022-10-14T09:40:31.155Z,61.44
2022-10-14T09:43:04.395Z,61.14
2022-10-14T09:45:49.468Z,61.21
2022-10-14T09:48:22.039Z,61.18
2022-10-14T09:50:53.111Z,60.88
2022-10-14T09:53:29.235Z,60.56
2022-10-14T09:56:01.209Z,60.55
2022-10-14T09:58:34.273Z,60.27
2022-10-14T10:01:03.711Z,59.83
2022-10-14T10:03:33.986Z,59.78
2022-10-14T10:06:06.020Z,60.22
2022-10-14T10:08:36.199Z,60.21
2022-10-14T10:11:09.442Z,60.34
2022-10-14T10:13:41.750Z,60.38
2022-10-14T10:16:21.027Z,60.38
2022-10-14T10:18:49.864Z,60.38
2022-10-14T10:21:21.386Z,60.44
2022-10-14T10:23:55.520Z,60.14
2022-10-14T10:26:31.799Z,59.99
2022-10-14T10:29:02.719Z,60.13
2022-10-14T10:31:53.418Z,59.95
2022-10-14T10:34:54.318Z,59.64
2022-10-14T10:37:31.133Z,59.56
2022-10-14T10:40:31.892Z,59.80
2022-10-14T10:43:21.807Z,59.71
2022-10-14T10:46:02.388Z,59.07
2022-10-14T10:48:43.055Z,59.22
2022-10-14T10:51:15.767Z,59.59
2022-10-14T10:54:03.221Z,59.78
2022-10-14T10:56:38.915Z,59.86
2022-10-14T10:59:35.357Z,60.08
2022-10-14T11:02:28.709Z,60.60
2022-10-14T11:05:03.918Z,60.51
2022-10-14T11:07:59.925Z,60.62
2022-10-14T11:10:52.557Z,60.61
2022-10-14T11:13:29.360Z,60.13
2022-10-14T11:16:08.339Z,59.94
2022-10-14T11:18:46.456Z,59.96
2022-10-14T11:21:25.963Z,59.81
2022-10-14T11:24:04.693Z,59.84
2022-10-14T11:26:53.492Z,59.81
2022-10-14T11:29:47.397Z,60.06
2022-10-14T11:32:24.063Z,60.04
2022-10-14T11:35:06.235Z,60.06
2022-10-14T11:37:45.144Z,59.90
2022-10-14T11:40:22.567Z,59.70
2022-10-14T11:43:07.214Z,59.47
2022-10-14T11:45:51.852Z,59.20
2022-10-14T11:48:39.451Z,58.63
2022-10-14T11:51:14.486Z,58.60
2022-10-14T11:53:50.765Z,58.51
2022-10-14T11:56:30.659Z,58.43
2022-10-14T11:59:21.743Z,58.49
2022-10-14T12:01:53.940Z,58.28
2022-10-14T12:04:29.900Z,58.18
2022-10-14T12:07:05.828Z,58.08
2022-10-14T12:09:40.756Z,58.33
2022-10-14T12:12:11.835Z,58.31
2022-10-14T12:14:44.194Z,58.47
2022-10-14T12:17:20.765Z,58.56
2022-10-14T12:19:52.597Z,58.01
2022-10-14T12:22:24.529Z,57.95
2022-10-14T12:24:55.724Z,58.33
2022-10-14T12:27:26.992Z,57.85
2022-10-14T12:29:57.622Z,58.23
2022-10-14T12:32:27.564Z,58.24
2022-10-14T12:34:58.415Z,58.31
2022-10-14T12:37:51.617Z,58.18
2022-10-14T12:40:31.262Z,58.47
2022-10-14T12:43:04.142Z,58.59
2022-10-14T12:45:34.732Z,58.63
2022-10-14T12:48:08.566Z,58.58
2022-10-14T12:50:40.368Z,58.28
2022-10-14T12:53:17.932Z,58.34
2022-10-14T12:55:51.767Z,58.44
2022-10-14T12:58:30.461Z,58.13
2022-10-14T13:01:03.588Z,58.16
2022-10-14T13:03:36.126Z,58.33
2022-10-14T13:06:32.618Z,58.08
2022-10-14T13:09:42.024Z,58.07
2022-10-14T13:12:42.247Z,58.27
2022-10-14T13:15:59.780Z,58.29
2022-10-14T13:18:51.009Z,58.07
2022-10-14T13:21:48.867Z,58.39
2022-10-14T13:24:24.399Z,58.50
2022-10-14T13:27:10.630Z,58.65
2022-10-14T13:30:04.332Z,58.67
2022-10-14T13:32:41.263Z,58.93
2022-10-14T13:35:19.959Z,59.09
2022-10-14T13:37:57.957Z,59.18
2022-10-14T13:40:31.844Z,59.38
2022-10-14T13:43:02.129Z,59.30
2022-10-14T13:45:38.375Z,59.33
2022-10-14T13:48:14.014Z,59.48
2022-10-14T13:50:44.351Z,59.80
2022-10-14T13:53:17.880Z,59.85
2022-10-14T13:55:54.427Z,59.85
2022-10-14T13:58:24.324Z,59.96
2022-10-14T14:01:01.742Z,59.91
2022-10-14T14:03:34.035Z,60.09
2022-10-14T14:06:03.464Z,60.20
2022-10-14T14:08:40.810Z,60.21
2022-10-14T14:11:19.043Z,60.34
2022-10-14T14:13:57.556Z,60.38
2022-10-14T14:16:34.034Z,60.33
2022-10-14T14:19:08.363Z,60.41
2022-10-14T14:21:37.473Z,60.26
2022-10-14T14:24:17.407Z,60.30
2022-10-14T14:26:47.930Z,60.33
2022-10-14T14:29:19.270Z,60.42
2022-10-14T14:34:39.842Z,60.43
2022-10-14T14:39:58.177Z,60.37
2022-10-14T14:42:29.733Z,60.47
2022-10-14T14:45:02.792Z,60.54
2022-10-14T14:47:33.384Z,60.64
2022-10-14T14:50:31.398Z,60.51
2022-10-14T14:52:52.999Z,60.57
2022-10-14T14:55:43.607Z,60.47
2022-10-14T14:58:24.387Z,60.36
2022-10-14T15:00:55.095Z,60.67
2022-10-14T15:03:25.344Z,60.47
2022-10-14T15:05:58.686Z,60.51
2022-10-14T15:08:30.211Z,60.62
2022-10-14T15:11:00.628Z,60.42
2022-10-14T15:13:45.651Z,60.50
2022-10-14T15:16:14.356Z,60.60
2022-10-14T15:18:43.819Z,60.61
2022-10-14T15:21:20.308Z,60.70
2022-10-14T15:24:03.519Z,60.41
2022-10-14T15:26:34.980Z,60.60
2022-10-14T15:29:16.025Z,60.65
2022-10-14T15:31:46.391Z,60.78
2022-10-14T15:34:20.924Z,60.72
2022-10-14T15:36:52.393Z,60.77
2022-10-14T15:39:21.795Z,60.75
2022-10-14T15:41:50.234Z,60.79
2022-10-14T15:44:20.348Z,60.83
2022-10-14T15:47:06.299Z,60.86
2022-10-14T15:49:39.283Z,61.00
2022-10-14T15:52:07.571Z,61.13
2022-10-14T15:54:36.543Z,61.19
2022-10-14T15:57:05.899Z,61.07
2022-10-14T15:59:36.078Z,61.20
2022-10-14T16:02:05.556Z,61.25
2022-10-14T16:04:37.264Z,61.52
2022-10-14T16:07:08.267Z,61.67
2022-10-14T16:09:36.918Z,61.81
2022-10-14T16:12:06.637Z,62.23
2022-10-14T16:14:36.665Z,62.53
2022-10-14T16:17:05.350Z,62.94
2022-10-14T16:19:35.067Z,63.33
2022-10-14T16:22:03.639Z,63.50
2022-10-14T16:24:31.894Z,63.74
2022-10-14T16:27:00.387Z,64.01
2022-10-14T16:29:28.708Z,64.25
2022-10-14T16:31:59.402Z,64.56
2022-10-14T16:34:27.771Z,64.75
2022-10-14T16:36:56.154Z,64.85
2022-10-14T16:39:24.928Z,64.99
2022-10-14T16:41:53.555Z,65.08
2022-10-14T16:44:28.148Z,65.22
2022-10-14T16:47:18.891Z,65.60
2022-10-14T16:49:49.357Z,65.76
2022-10-14T16:52:18.455Z,65.63
2022-10-14T16:54:47.023Z,66.01
2022-10-14T16:57:16.153Z,66.21
2022-10-14T16:59:44.931Z,66.27
2022-10-14T17:02:17.937Z,66.22
2022-10-14T17:04:48.390Z,66.44
2022-10-14T17:07:17.669Z,66.66
2022-10-14T17:09:46.246Z,66.79
2022-10-14T17:12:14.982Z,66.86
2022-10-14T17:14:43.307Z,67.11
2022-10-14T17:17:13.267Z,67.00
2022-10-14T17:19:43.449Z,66.93
2022-10-14T17:22:12.439Z,67.40
2022-10-14T17:24:41.059Z,67.31
2022-10-14T17:27:09.605Z,67.38
2022-10-14T17:29:38.345Z,67.61
2022-10-14T17:32:06.917Z,67.41
2022-10-14T17:34:35.886Z,67.89
2022-10-14T17:39:37.673Z,68.16
2022-10-14T17:42:06.263Z,68.18
2022-10-14T17:44:34.661Z,68.30
2022-10-14T17:47:03.434Z,68.24
2022-10-14T17:49:32.675Z,68.31
2022-10-14T17:52:02.654Z,68.41
2022-10-14T17:54:32.424Z,68.41
2022-10-14T17:57:00.929Z,68.48
2022-10-14T17:59:29.349Z,68.26
2022-10-14T18:02:02.650Z,68.47
2022-10-14T18:04:33.405Z,68.54
2022-10-14T18:07:02.735Z,68.45
2022-10-14T18:09:34.224Z,68.54
2022-10-14T18:12:08.689Z,68.39
2022-10-14T18:14:38.203Z,68.49
2022-10-14T18:17:06.756Z,68.44
2022-10-14T18:19:35.587Z,68.70
2022-10-14T18:22:04.295Z,68.60
2022-10-14T18:24:38.664Z,68.50
2022-10-14T18:27:07.818Z,68.50
2022-10-14T18:29:36.502Z,68.37
2022-10-14T18:32:04.931Z,68.26
2022-10-14T18:34:33.864Z,68.74
2022-10-14T18:37:02.591Z,68.93
2022-10-14T18:39:32.120Z,69.12
2022-10-14T18:42:02.247Z,69.38
2022-10-14T18:44:30.977Z,69.31
2022-10-14T18:46:59.841Z,69.52
2022-10-14T18:49:29.646Z,69.51
2022-10-14T18:51:59.421Z,69.63
2022-10-14T18:54:30.547Z,69.68
2022-10-14T18:57:00.417Z,69.70
2022-10-14T18:59:32.480Z,69.70
2022-10-14T19:02:02.616Z,69.62
2022-10-14T19:04:32.320Z,69.57
2022-10-14T19:07:02.310Z,69.69
2022-10-14T19:09:35.813Z,69.76
2022-10-14T19:12:26.983Z,69.59
2022-10-14T19:14:58.436Z,70.03
2022-10-14T19:17:28.542Z,70.14
2022-10-14T19:20:01.207Z,69.98
2022-10-14T19:22:32.069Z,70.12
2022-10-14T19:25:01.773Z,70.22
2022-10-14T19:27:30.916Z,70.29
2022-10-14T19:30:02.034Z,70.09
2022-10-14T19:32:31.806Z,70.44
2022-10-14T19:35:02.377Z,70.42
2022-10-14T19:37:31.828Z,70.75
2022-10-14T19:40:02.490Z,70.55
2022-10-14T19:42:32.697Z,70.67
2022-10-14T19:45:03.946Z,70.81
2022-10-14T19:47:34.144Z,70.87
2022-10-14T19:50:03.789Z,70.78
2022-10-14T19:52:33.430Z,71.10
2022-10-14T19:55:03.385Z,70.95
2022-10-14T19:57:33.251Z,70.99
2022-10-14T20:00:04.728Z,70.96
2022-10-14T20:02:34.652Z,71.08
2022-10-14T20:05:04.784Z,71.12
2022-10-14T20:07:34.380Z,71.04
2022-10-14T20:10:04.133Z,71.06
2022-10-14T20:12:34.708Z,71.27
2022-10-14T20:15:06.331Z,71.17
2022-10-14T20:17:36.072Z,71.24
2022-10-14T20:20:06.220Z,71.29
2022-10-14T20:22:36.064Z,71.27
2022-10-14T20:25:06.038Z,71.18
2022-10-14T20:27:35.828Z,71.04
2022-10-14T20:30:07.780Z,70.92
2022-10-14T20:32:37.657Z,71.03
2022-10-14T20:35:11.541Z,71.06
2022-10-14T20:37:44.716Z,71.16
2022-10-14T20:40:15.617Z,70.87
2022-10-14T20:42:45.504Z,70.92
2022-10-14T20:45:15.319Z,70.99
2022-10-14T20:47:43.903Z,70.92
2022-10-14T20:50:12.364Z,70.74
2022-10-14T20:52:40.822Z,70.60
2022-10-14T20:55:09.685Z,70.75
2022-10-14T20:57:38.074Z,70.54
2022-10-14T21:00:07.404Z,70.72
2022-10-14T21:02:37.247Z,70.67
2022-10-14T21:05:06.422Z,70.50
2022-10-14T21:07:35.455Z,70.71
2022-10-14T21:10:04.172Z,70.75
2022-10-14T21:12:32.556Z,70.85
2022-10-14T21:15:00.944Z,70.86
2022-10-14T21:17:29.402Z,70.89
2022-10-14T21:19:59.359Z,70.91
2022-10-14T21:22:55.343Z,70.83
2022-10-14T21:25:23.751Z,71.02
2022-10-14T21:27:52.089Z,70.85
2022-10-14T21:30:20.465Z,70.89
2022-10-14T21:32:48.842Z,70.84
2022-10-14T21:35:18.595Z,70.86
2022-10-14T21:37:46.971Z,70.77
2022-10-14T21:40:15.716Z,70.95
2022-10-14T21:42:44.127Z,70.73
2022-10-14T21:45:12.610Z,70.68
2022-10-14T21:47:41.033Z,70.90
2022-10-14T21:50:10.093Z,70.87
2022-10-14T21:52:39.921Z,70.89
2022-10-14T21:55:08.978Z,70.68
2022-10-14T21:57:37.799Z,70.94
2022-10-14T22:00:08.939Z,71.11
2022-10-14T22:02:37.611Z,71.00
2022-10-14T22:05:06.683Z,71.08
2022-10-14T22:07:35.053Z,71.12
2022-10-14T22:10:25.636Z,70.97
2022-10-14T22:12:53.967Z,71.04
2022-10-14T22:15:22.763Z,70.96
2022-10-14T22:17:51.344Z,70.94
2022-10-14T22:20:20.189Z,70.75
2022-10-14T22:22:48.555Z,70.81
2022-10-14T22:25:18.640Z,70.91
2022-10-14T22:27:47.352Z,70.50
2022-10-14T22:30:16.731Z,70.40
2022-10-14T22:32:45.419Z,70.19
2022-10-14T22:35:13.708Z,69.91
2022-10-14T22:37:42.260Z,69.42
2022-10-14T22:40:12.004Z,69.35
2022-10-14T22:42:42.463Z,69.33
2022-10-14T22:45:12.688Z,69.60
2022-10-14T22:47:41.032Z,69.34
2022-10-14T22:50:10.051Z,69.54
2022-10-14T22:52:39.129Z,69.26
2022-10-14T22:55:09.141Z,69.52
2022-10-14T22:57:37.549Z,69.36
2022-10-14T23:00:08.499Z,69.35
2022-10-14T23:02:37.009Z,69.17
2022-10-14T23:05:06.012Z,69.40
2022-10-14T23:07:34.720Z,69.08
2022-10-14T23:10:03.143Z,69.08
2022-10-14T23:12:31.593Z,69.30
2022-10-14T23:15:00.092Z,69.25
2022-10-14T23:17:31.061Z,69.42
2022-10-14T23:19:59.367Z,69.68
2022-10-14T23:22:28.008Z,69.60
2022-10-14T23:24:56.395Z,69.41
2022-10-14T23:27:24.838Z,69.28
2022-10-14T23:29:53.259Z,69.29
2022-10-14T23:32:21.630Z,69.49
2022-10-14T23:34:51.595Z,69.15
2022-10-14T23:37:20.334Z,69.12
2022-10-14T23:39:49.461Z,69.32
2022-10-14T23:42:17.875Z,69.41
2022-10-14T23:44:46.311Z,69.32
2022-10-14T23:47:14.797Z,69.16
2022-10-14T23:49:43.182Z,69.40
2022-10-14T23:52:12.956Z,69.30
2022-10-14T23:54:41.303Z,69.45
2022-10-14T23:57:09.755Z,69.50
2022-10-14T23:59:38.218Z,69.63
